sensor_id;sensor_type;location;lat;lon;timestamp;P1;durP1;ratioP1;P2;durP2;ratioP2
69485;SDS011;56677;51.710;5.366;2023-07-13T03:43:56;3.47;;;1.40;;
69485;SDS011;56677;51.710;5.366;2023-07-13T03:46:21;4.07;;;1.43;;
69485;SDS011;56677;51.710;5.366;2023-07-13T03:48:47;5.75;;;1.98;;
69485;SDS011;56677;51.710;5.366;2023-07-13T03:51:13;6.13;;;1.47;;
69485;SDS011;56677;51.710;5.366;2023-07-13T03:53:39;4.50;;;1.73;;
69485;SDS011;56677;51.710;5.366;2023-07-13T03:56:04;3.55;;;1.67;;
69485;SDS011;56677;51.710;5.366;2023-07-13T03:58:34;3.50;;;1.50;;
69485;SDS011;56677;51.710;5.366;2023-07-13T04:01:00;5.93;;;2.05;;
69485;SDS011;56677;51.710;5.366;2023-07-13T04:03:26;3.80;;;1.30;;
69485;SDS011;56677;51.710;5.366;2023-07-13T04:05:51;4.13;;;1.48;;
69485;SDS011;56677;51.710;5.366;2023-07-13T04:08:16;3.95;;;1.85;;
69485;SDS011;56677;51.710;5.366;2023-07-13T04:10:42;7.97;;;1.75;;
69485;SDS011;56677;51.710;5.366;2023-07-13T04:13:07;4.90;;;1.63;;
69485;SDS011;56677;51.710;5.366;2023-07-13T04:15:32;3.70;;;1.50;;
69485;SDS011;56677;51.710;5.366;2023-07-13T04:17:58;3.20;;;1.60;;
69485;SDS011;56677;51.710;5.366;2023-07-13T04:20:24;4.00;;;1.33;;
69485;SDS011;56677;51.710;5.366;2023-07-13T04:22:49;5.00;;;1.60;;
69485;SDS011;56677;51.710;5.366;2023-07-13T04:25:14;3.40;;;1.48;;
69485;SDS011;56677;51.710;5.366;2023-07-13T04:27:39;6.90;;;1.90;;
69485;SDS011;56677;51.710;5.366;2023-07-13T04:30:05;4.05;;;1.48;;
69485;SDS011;56677;51.710;5.366;2023-07-13T04:32:30;3.08;;;1.50;;
69485;SDS011;56677;51.710;5.366;2023-07-13T04:34:55;4.25;;;1.40;;
69485;SDS011;56677;51.710;5.366;2023-07-13T04:37:21;3.00;;;1.60;;
69485;SDS011;56677;51.710;5.366;2023-07-13T04:39:46;4.75;;;1.73;;
69485;SDS011;56677;51.710;5.366;2023-07-13T04:42:11;2.90;;;1.60;;
69485;SDS011;56677;51.710;5.366;2023-07-13T04:44:36;3.80;;;1.50;;
69485;SDS011;56677;51.710;5.366;2023-07-13T04:47:01;3.37;;;1.37;;
69485;SDS011;56677;51.710;5.366;2023-07-13T04:49:26;5.33;;;1.70;;
69485;SDS011;56677;51.710;5.366;2023-07-13T04:51:51;5.90;;;1.42;;
69485;SDS011;56677;51.710;5.366;2023-07-13T04:54:17;2.53;;;1.42;;
69485;SDS011;56677;51.710;5.366;2023-07-13T04:56:42;2.85;;;1.38;;
69485;SDS011;56677;51.710;5.366;2023-07-13T04:59:07;6.38;;;1.90;;
69485;SDS011;56677;51.710;5.366;2023-07-13T05:01:32;3.35;;;1.48;;
69485;SDS011;56677;51.710;5.366;2023-07-13T05:03:57;3.80;;;1.60;;
69485;SDS011;56677;51.710;5.366;2023-07-13T05:06:22;5.00;;;1.73;;
69485;SDS011;56677;51.710;5.366;2023-07-13T05:08:47;4.43;;;1.80;;
69485;SDS011;56677;51.710;5.366;2023-07-13T05:11:12;2.60;;;1.40;;
69485;SDS011;56677;51.710;5.366;2023-07-13T05:13:38;4.65;;;1.60;;
69485;SDS011;56677;51.710;5.366;2023-07-13T05:16:05;2.83;;;1.40;;
69485;SDS011;56677;51.710;5.366;2023-07-13T05:18:30;3.27;;;1.40;;
69485;SDS011;56677;51.710;5.366;2023-07-13T05:21:00;2.97;;;1.55;;
69485;SDS011;56677;51.710;5.366;2023-07-13T05:23:25;4.23;;;1.60;;
69485;SDS011;56677;51.710;5.366;2023-07-13T05:25:50;3.57;;;1.50;;
69485;SDS011;56677;51.710;5.366;2023-07-13T05:28:15;3.70;;;1.50;;
69485;SDS011;56677;51.710;5.366;2023-07-13T05:30:44;5.70;;;1.92;;
69485;SDS011;56677;51.710;5.366;2023-07-13T05:33:10;3.40;;;1.50;;
69485;SDS011;56677;51.710;5.366;2023-07-13T05:35:35;3.88;;;1.52;;
69485;SDS011;56677;51.710;5.366;2023-07-13T05:38:00;6.65;;;1.80;;
69485;SDS011;56677;51.710;5.366;2023-07-13T05:40:25;4.05;;;1.45;;
69485;SDS011;56677;51.710;5.366;2023-07-13T05:42:50;4.07;;;1.60;;
69485;SDS011;56677;51.710;5.366;2023-07-13T05:45:15;3.22;;;1.70;;
69485;SDS011;56677;51.710;5.366;2023-07-13T05:47:40;2.97;;;1.70;;
69485;SDS011;56677;51.710;5.366;2023-07-13T05:50:06;4.10;;;1.38;;
69485;SDS011;56677;51.710;5.366;2023-07-13T05:52:31;4.83;;;1.77;;
69485;SDS011;56677;51.710;5.366;2023-07-13T05:54:56;3.67;;;1.70;;
69485;SDS011;56677;51.710;5.366;2023-07-13T05:57:21;5.40;;;1.73;;
69485;SDS011;56677;51.710;5.366;2023-07-13T05:59:46;4.90;;;2.03;;
69485;SDS011;56677;51.710;5.366;2023-07-13T06:02:11;6.40;;;1.87;;
69485;SDS011;56677;51.710;5.366;2023-07-13T06:04:37;4.80;;;1.85;;
69485;SDS011;56677;51.710;5.366;2023-07-13T06:07:02;6.75;;;2.10;;
69485;SDS011;56677;51.710;5.366;2023-07-13T06:09:27;5.20;;;1.80;;
69485;SDS011;56677;51.710;5.366;2023-07-13T06:11:52;7.20;;;1.80;;
69485;SDS011;56677;51.710;5.366;2023-07-13T06:14:17;8.00;;;2.05;;
69485;SDS011;56677;51.710;5.366;2023-07-13T06:16:42;3.90;;;1.77;;
69485;SDS011;56677;51.710;5.366;2023-07-13T06:19:07;5.20;;;1.70;;
69485;SDS011;56677;51.710;5.366;2023-07-13T06:21:33;7.18;;;1.85;;
69485;SDS011;56677;51.710;5.366;2023-07-13T06:23:58;5.83;;;1.93;;
69485;SDS011;56677;51.710;5.366;2023-07-13T06:26:23;7.60;;;2.53;;
69485;SDS011;56677;51.710;5.366;2023-07-13T06:28:48;4.40;;;1.77;;
69485;SDS011;56677;51.710;5.366;2023-07-13T06:31:14;4.67;;;1.80;;
69485;SDS011;56677;51.710;5.366;2023-07-13T06:33:39;10.32;;;1.98;;
69485;SDS011;56677;51.710;5.366;2023-07-13T06:36:05;4.70;;;1.80;;
69485;SDS011;56677;51.710;5.366;2023-07-13T06:38:30;6.17;;;2.20;;
69485;SDS011;56677;51.710;5.366;2023-07-13T06:40:55;7.30;;;1.90;;
69485;SDS011;56677;51.710;5.366;2023-07-13T06:43:21;7.63;;;2.00;;
69485;SDS011;56677;51.710;5.366;2023-07-13T06:45:46;8.30;;;2.00;;
69485;SDS011;56677;51.710;5.366;2023-07-13T06:48:11;7.00;;;2.30;;
69485;SDS011;56677;51.710;5.366;2023-07-13T06:50:37;9.65;;;2.10;;
69485;SDS011;56677;51.710;5.366;2023-07-13T06:53:02;8.20;;;2.40;;
69485;SDS011;56677;51.710;5.366;2023-07-13T06:55:27;8.52;;;2.50;;
69485;SDS011;56677;51.710;5.366;2023-07-13T06:57:52;7.43;;;3.10;;
69485;SDS011;56677;51.710;5.366;2023-07-13T07:00:17;10.25;;;2.90;;
69485;SDS011;56677;51.710;5.366;2023-07-13T07:02:43;9.77;;;2.75;;
69485;SDS011;56677;51.710;5.366;2023-07-13T07:05:08;9.90;;;2.90;;
69485;SDS011;56677;51.710;5.366;2023-07-13T07:07:33;7.10;;;3.90;;
69485;SDS011;56677;51.710;5.366;2023-07-13T07:09:58;10.82;;;4.03;;
69485;SDS011;56677;51.710;5.366;2023-07-13T07:12:23;15.73;;;5.60;;
69485;SDS011;56677;51.710;5.366;2023-07-13T07:14:48;15.60;;;6.55;;
69485;SDS011;56677;51.710;5.366;2023-07-13T07:17:14;16.03;;;7.07;;
69485;SDS011;56677;51.710;5.366;2023-07-13T07:19:39;16.40;;;6.97;;
69485;SDS011;56677;51.710;5.366;2023-07-13T07:22:04;18.13;;;6.68;;
69485;SDS011;56677;51.710;5.366;2023-07-13T07:24:29;16.60;;;6.65;;
69485;SDS011;56677;51.710;5.366;2023-07-13T07:26:54;18.80;;;6.53;;
69485;SDS011;56677;51.710;5.366;2023-07-13T07:29:19;18.85;;;6.18;;
69485;SDS011;56677;51.710;5.366;2023-07-13T07:31:44;15.55;;;7.60;;
69485;SDS011;56677;51.710;5.366;2023-07-13T07:34:09;14.25;;;6.40;;
69485;SDS011;56677;51.710;5.366;2023-07-13T07:36:35;19.45;;;7.03;;
69485;SDS011;56677;51.710;5.366;2023-07-13T07:39:00;18.27;;;6.80;;
69485;SDS011;56677;51.710;5.366;2023-07-13T07:41:25;17.37;;;7.73;;
69485;SDS011;56677;51.710;5.366;2023-07-13T07:43:50;15.83;;;6.63;;
69485;SDS011;56677;51.710;5.366;2023-07-13T07:46:15;19.92;;;7.10;;
69485;SDS011;56677;51.710;5.366;2023-07-13T07:48:40;17.38;;;5.95;;
69485;SDS011;56677;51.710;5.366;2023-07-13T07:51:05;12.25;;;6.05;;
69485;SDS011;56677;51.710;5.366;2023-07-13T07:53:31;16.80;;;6.17;;
69485;SDS011;56677;51.710;5.366;2023-07-13T07:55:56;16.88;;;6.18;;
69485;SDS011;56677;51.710;5.366;2023-07-13T07:58:21;15.37;;;5.80;;
69485;SDS011;56677;51.710;5.366;2023-07-13T08:00:46;14.70;;;6.37;;
69485;SDS011;56677;51.710;5.366;2023-07-13T08:03:11;18.35;;;6.00;;
69485;SDS011;56677;51.710;5.366;2023-07-13T08:05:36;11.93;;;5.93;;
69485;SDS011;56677;51.710;5.366;2023-07-13T08:08:02;12.33;;;6.30;;
69485;SDS011;56677;51.710;5.366;2023-07-13T08:10:27;14.10;;;6.57;;
69485;SDS011;56677;51.710;5.366;2023-07-13T08:12:52;24.90;;;6.43;;
69485;SDS011;56677;51.710;5.366;2023-07-13T08:15:18;10.02;;;5.72;;
69485;SDS011;56677;51.710;5.366;2023-07-13T08:17:43;12.10;;;5.90;;
69485;SDS011;56677;51.710;5.366;2023-07-13T08:20:08;14.97;;;6.00;;
69485;SDS011;56677;51.710;5.366;2023-07-13T08:22:33;11.73;;;5.70;;
69485;SDS011;56677;51.710;5.366;2023-07-13T08:24:59;13.70;;;6.22;;
69485;SDS011;56677;51.710;5.366;2023-07-13T08:27:24;12.10;;;6.40;;
69485;SDS011;56677;51.710;5.366;2023-07-13T08:29:50;14.10;;;5.83;;
69485;SDS011;56677;51.710;5.366;2023-07-13T08:32:15;15.40;;;6.13;;
69485;SDS011;56677;51.710;5.366;2023-07-13T08:34:40;13.50;;;5.40;;
69485;SDS011;56677;51.710;5.366;2023-07-13T08:37:06;12.10;;;5.50;;
69485;SDS011;56677;51.710;5.366;2023-07-13T08:39:31;11.98;;;5.78;;
69485;SDS011;56677;51.710;5.366;2023-07-13T08:41:59;14.10;;;5.60;;
69485;SDS011;56677;51.710;5.366;2023-07-13T08:44:38;12.77;;;5.18;;
69485;SDS011;56677;51.710;5.366;2023-07-13T08:47:05;9.15;;;5.07;;
69485;SDS011;56677;51.710;5.366;2023-07-13T08:49:31;10.93;;;5.22;;
69485;SDS011;56677;51.710;5.366;2023-07-13T08:51:59;10.80;;;4.53;;
69485;SDS011;56677;51.710;5.366;2023-07-13T08:54:33;9.70;;;4.27;;
69485;SDS011;56677;51.710;5.366;2023-07-13T08:57:01;9.93;;;4.43;;
69485;SDS011;56677;51.710;5.366;2023-07-13T08:59:28;11.43;;;4.75;;
69485;SDS011;56677;51.710;5.366;2023-07-13T09:02:16;10.82;;;4.13;;
69485;SDS011;56677;51.710;5.366;2023-07-13T09:04:46;9.48;;;4.45;;
69485;SDS011;56677;51.710;5.366;2023-07-13T09:09:46;11.25;;;4.15;;
69485;SDS011;56677;51.710;5.366;2023-07-13T09:12:25;11.15;;;4.80;;
69485;SDS011;56677;51.710;5.366;2023-07-13T09:14:53;10.40;;;4.22;;
69485;SDS011;56677;51.710;5.366;2023-07-13T09:17:21;8.48;;;4.65;;
69485;SDS011;56677;51.710;5.366;2023-07-13T09:19:49;9.53;;;4.20;;
69485;SDS011;56677;51.710;5.366;2023-07-13T09:22:19;10.82;;;4.60;;
69485;SDS011;56677;51.710;5.366;2023-07-13T09:24:49;8.52;;;4.38;;
69485;SDS011;56677;51.710;5.366;2023-07-13T09:27:17;10.65;;;4.18;;
69485;SDS011;56677;51.710;5.366;2023-07-13T09:29:45;9.38;;;4.10;;
69485;SDS011;56677;51.710;5.366;2023-07-13T09:32:12;10.00;;;3.80;;
69485;SDS011;56677;51.710;5.366;2023-07-13T09:34:39;7.97;;;4.00;;
69485;SDS011;56677;51.710;5.366;2023-07-13T09:37:04;9.70;;;3.97;;
69485;SDS011;56677;51.710;5.366;2023-07-13T09:39:31;10.47;;;3.53;;
69485;SDS011;56677;51.710;5.366;2023-07-13T09:44:27;9.15;;;4.30;;
69485;SDS011;56677;51.710;5.366;2023-07-13T09:46:53;9.52;;;3.53;;
69485;SDS011;56677;51.710;5.366;2023-07-13T09:49:22;6.70;;;4.07;;
69485;SDS011;56677;51.710;5.366;2023-07-13T09:51:48;6.35;;;3.55;;
69485;SDS011;56677;51.710;5.366;2023-07-13T09:54:23;8.13;;;3.80;;
69485;SDS011;56677;51.710;5.366;2023-07-13T09:56:48;9.30;;;3.97;;
69485;SDS011;56677;51.710;5.366;2023-07-13T09:59:19;6.70;;;2.92;;
69485;SDS011;56677;51.710;5.366;2023-07-13T10:01:44;6.83;;;3.80;;
69485;SDS011;56677;51.710;5.366;2023-07-13T10:04:13;9.07;;;3.60;;
69485;SDS011;56677;51.710;5.366;2023-07-13T10:06:38;7.28;;;3.45;;
69485;SDS011;56677;51.710;5.366;2023-07-13T10:09:04;6.23;;;3.70;;
69485;SDS011;56677;51.710;5.366;2023-07-13T10:11:34;11.20;;;3.88;;
69485;SDS011;56677;51.710;5.366;2023-07-13T10:14:00;8.48;;;3.60;;
69485;SDS011;56677;51.710;5.366;2023-07-13T10:16:27;7.95;;;3.65;;
69485;SDS011;56677;51.710;5.366;2023-07-13T10:18:57;5.90;;;3.20;;
69485;SDS011;56677;51.710;5.366;2023-07-13T10:21:23;7.65;;;3.50;;
69485;SDS011;56677;51.710;5.366;2023-07-13T10:23:55;7.55;;;3.35;;
69485;SDS011;56677;51.710;5.366;2023-07-13T10:26:23;9.82;;;3.17;;
69485;SDS011;56677;51.710;5.366;2023-07-13T10:28:51;5.88;;;3.20;;
69485;SDS011;56677;51.710;5.366;2023-07-13T10:31:17;10.57;;;3.30;;
69485;SDS011;56677;51.710;5.366;2023-07-13T10:33:42;9.20;;;3.42;;
69485;SDS011;56677;51.710;5.366;2023-07-13T10:36:20;6.43;;;3.30;;
69485;SDS011;56677;51.710;5.366;2023-07-13T10:38:48;7.85;;;3.50;;
69485;SDS011;56677;51.710;5.366;2023-07-13T10:41:15;8.93;;;3.33;;
69485;SDS011;56677;51.710;5.366;2023-07-13T10:43:43;10.13;;;3.30;;
69485;SDS011;56677;51.710;5.366;2023-07-13T10:46:10;5.95;;;3.30;;
69485;SDS011;56677;51.710;5.366;2023-07-13T10:48:36;9.40;;;4.00;;
69485;SDS011;56677;51.710;5.366;2023-07-13T10:51:01;8.13;;;3.25;;
69485;SDS011;56677;51.710;5.366;2023-07-13T10:53:29;7.78;;;3.20;;
69485;SDS011;56677;51.710;5.366;2023-07-13T10:56:05;6.00;;;2.63;;
69485;SDS011;56677;51.710;5.366;2023-07-13T10:58:33;7.03;;;3.30;;
69485;SDS011;56677;51.710;5.366;2023-07-13T11:01:17;6.20;;;3.20;;
69485;SDS011;56677;51.710;5.366;2023-07-13T11:06:09;9.40;;;3.15;;
69485;SDS011;56677;51.710;5.366;2023-07-13T11:08:36;5.72;;;3.22;;
69485;SDS011;56677;51.710;5.366;2023-07-13T11:11:01;5.13;;;2.77;;
69485;SDS011;56677;51.710;5.366;2023-07-13T11:13:55;5.93;;;2.90;;
69485;SDS011;56677;51.710;5.366;2023-07-13T11:18:54;6.72;;;2.70;;
69485;SDS011;56677;51.710;5.366;2023-07-13T11:21:33;5.05;;;3.10;;
69485;SDS011;56677;51.710;5.366;2023-07-13T11:24:02;8.90;;;3.00;;
69485;SDS011;56677;51.710;5.366;2023-07-13T11:29:07;6.57;;;3.08;;
69485;SDS011;56677;51.710;5.366;2023-07-13T11:31:33;5.07;;;2.70;;
69485;SDS011;56677;51.710;5.366;2023-07-13T11:33:59;4.82;;;2.60;;
69485;SDS011;56677;51.710;5.366;2023-07-13T11:36:27;5.50;;;2.93;;
69485;SDS011;56677;51.710;5.366;2023-07-13T11:41:20;4.18;;;2.42;;
69485;SDS011;56677;51.710;5.366;2023-07-13T11:43:49;6.47;;;2.83;;
69485;SDS011;56677;51.710;5.366;2023-07-13T11:46:22;6.18;;;2.60;;
69485;SDS011;56677;51.710;5.366;2023-07-13T11:48:47;6.28;;;2.70;;
69485;SDS011;56677;51.710;5.366;2023-07-13T11:51:15;6.30;;;2.97;;
69485;SDS011;56677;51.710;5.366;2023-07-13T11:53:44;5.97;;;2.78;;
69485;SDS011;56677;51.710;5.366;2023-07-13T11:56:09;5.68;;;3.10;;
69485;SDS011;56677;51.710;5.366;2023-07-13T11:58:35;4.83;;;2.77;;
69485;SDS011;56677;51.710;5.366;2023-07-13T12:01:00;6.17;;;3.00;;
69485;SDS011;56677;51.710;5.366;2023-07-13T12:03:26;5.65;;;2.88;;
69485;SDS011;56677;51.710;5.366;2023-07-13T12:05:58;4.43;;;2.80;;
69485;SDS011;56677;51.710;5.366;2023-07-13T12:08:23;5.57;;;2.38;;
69485;SDS011;56677;51.710;5.366;2023-07-13T12:10:55;4.43;;;2.78;;
69485;SDS011;56677;51.710;5.366;2023-07-13T12:13:20;4.77;;;2.37;;
69485;SDS011;56677;51.710;5.366;2023-07-13T12:15:46;6.05;;;2.75;;
69485;SDS011;56677;51.710;5.366;2023-07-13T12:18:15;5.13;;;2.50;;
69485;SDS011;56677;51.710;5.366;2023-07-13T12:20:40;5.40;;;2.50;;
69485;SDS011;56677;51.710;5.366;2023-07-13T12:23:06;4.90;;;2.87;;
69485;SDS011;56677;51.710;5.366;2023-07-13T12:25:37;6.63;;;3.08;;
69485;SDS011;56677;51.710;5.366;2023-07-13T12:28:02;4.32;;;2.70;;
69485;SDS011;56677;51.710;5.366;2023-07-13T12:30:47;5.68;;;2.55;;
69485;SDS011;56677;51.710;5.366;2023-07-13T12:33:12;3.67;;;2.40;;
69485;SDS011;56677;51.710;5.366;2023-07-13T12:35:56;6.03;;;2.37;;
69485;SDS011;56677;51.710;5.366;2023-07-13T12:38:21;6.10;;;2.47;;
69485;SDS011;56677;51.710;5.366;2023-07-13T12:40:49;4.18;;;2.38;;
69485;SDS011;56677;51.710;5.366;2023-07-13T12:43:15;4.97;;;2.40;;
69485;SDS011;56677;51.710;5.366;2023-07-13T12:45:54;4.40;;;2.70;;
69485;SDS011;56677;51.710;5.366;2023-07-13T12:48:20;4.57;;;2.60;;
69485;SDS011;56677;51.710;5.366;2023-07-13T12:50:46;4.78;;;2.75;;
69485;SDS011;56677;51.710;5.366;2023-07-13T12:53:13;5.53;;;2.33;;
69485;SDS011;56677;51.710;5.366;2023-07-13T12:55:46;6.60;;;2.90;;
69485;SDS011;56677;51.710;5.366;2023-07-13T12:58:14;5.50;;;2.75;;
69485;SDS011;56677;51.710;5.366;2023-07-13T13:00:41;4.80;;;2.63;;
69485;SDS011;56677;51.710;5.366;2023-07-13T13:05:46;4.63;;;2.40;;
69485;SDS011;56677;51.710;5.366;2023-07-13T13:08:12;4.28;;;2.40;;
69485;SDS011;56677;51.710;5.366;2023-07-13T13:10:37;4.73;;;2.20;;
69485;SDS011;56677;51.710;5.366;2023-07-13T13:13:03;4.60;;;2.10;;
69485;SDS011;56677;51.710;5.366;2023-07-13T13:15:28;4.47;;;2.20;;
69485;SDS011;56677;51.710;5.366;2023-07-13T13:17:53;3.50;;;1.92;;
69485;SDS011;56677;51.710;5.366;2023-07-13T13:20:19;5.60;;;2.25;;
69485;SDS011;56677;51.710;5.366;2023-07-13T13:22:45;4.20;;;2.08;;
69485;SDS011;56677;51.710;5.366;2023-07-13T13:25:10;5.47;;;2.40;;
69485;SDS011;56677;51.710;5.366;2023-07-13T13:27:36;3.83;;;1.80;;
69485;SDS011;56677;51.710;5.366;2023-07-13T13:30:01;3.73;;;1.93;;
69485;SDS011;56677;51.710;5.366;2023-07-13T13:32:26;4.97;;;2.35;;
69485;SDS011;56677;51.710;5.366;2023-07-13T13:34:51;4.43;;;2.30;;
69485;SDS011;56677;51.710;5.366;2023-07-13T13:37:17;6.28;;;1.90;;
69485;SDS011;56677;51.710;5.366;2023-07-13T13:39:43;4.68;;;2.15;;
69485;SDS011;56677;51.710;5.366;2023-07-13T13:42:08;10.27;;;1.87;;
69485;SDS011;56677;51.710;5.366;2023-07-13T13:44:34;5.43;;;1.97;;
69485;SDS011;56677;51.710;5.366;2023-07-13T13:46:59;4.07;;;1.70;;
69485;SDS011;56677;51.710;5.366;2023-07-13T13:49:25;4.63;;;2.08;;
69485;SDS011;56677;51.710;5.366;2023-07-13T13:51:51;4.00;;;1.83;;
69485;SDS011;56677;51.710;5.366;2023-07-13T13:54:17;5.47;;;2.08;;
69485;SDS011;56677;51.710;5.366;2023-07-13T13:56:43;4.47;;;2.35;;
69485;SDS011;56677;51.710;5.366;2023-07-13T13:59:08;4.20;;;1.70;;
69485;SDS011;56677;51.710;5.366;2023-07-13T14:01:34;6.03;;;2.07;;
69485;SDS011;56677;51.710;5.366;2023-07-13T14:03:59;4.57;;;2.35;;
69485;SDS011;56677;51.710;5.366;2023-07-13T14:06:24;8.23;;;2.45;;
69485;SDS011;56677;51.710;5.366;2023-07-13T14:08:49;6.72;;;2.10;;
69485;SDS011;56677;51.710;5.366;2023-07-13T14:11:17;6.90;;;2.23;;
69485;SDS011;56677;51.710;5.366;2023-07-13T14:13:44;5.35;;;2.30;;
69485;SDS011;56677;51.710;5.366;2023-07-13T14:16:17;4.23;;;1.83;;
69485;SDS011;56677;51.710;5.366;2023-07-13T14:18:42;4.63;;;2.15;;
69485;SDS011;56677;51.710;5.366;2023-07-13T14:21:12;4.83;;;2.30;;
69485;SDS011;56677;51.710;5.366;2023-07-13T14:23:37;4.40;;;1.95;;
69485;SDS011;56677;51.710;5.366;2023-07-13T14:26:06;7.88;;;1.98;;
69485;SDS011;56677;51.710;5.366;2023-07-13T14:28:32;10.05;;;2.10;;
69485;SDS011;56677;51.710;5.366;2023-07-13T14:30:58;6.67;;;2.10;;
69485;SDS011;56677;51.710;5.366;2023-07-13T14:33:23;9.88;;;2.47;;
69485;SDS011;56677;51.710;5.366;2023-07-13T14:35:49;7.97;;;2.15;;
69485;SDS011;56677;51.710;5.366;2023-07-13T14:38:15;6.73;;;2.20;;
69485;SDS011;56677;51.710;5.366;2023-07-13T14:40:41;5.90;;;2.03;;
69485;SDS011;56677;51.710;5.366;2023-07-13T14:43:10;6.13;;;1.90;;
69485;SDS011;56677;51.710;5.366;2023-07-13T14:45:35;6.72;;;2.40;;
69485;SDS011;56677;51.710;5.366;2023-07-13T14:48:03;4.20;;;2.03;;
69485;SDS011;56677;51.710;5.366;2023-07-13T14:50:30;7.50;;;1.83;;
69485;SDS011;56677;51.710;5.366;2023-07-13T14:52:56;10.13;;;2.50;;
69485;SDS011;56677;51.710;5.366;2023-07-13T14:55:21;7.07;;;2.43;;
69485;SDS011;56677;51.710;5.366;2023-07-13T14:57:46;6.68;;;2.20;;
69485;SDS011;56677;51.710;5.366;2023-07-13T15:00:14;6.88;;;2.33;;
69485;SDS011;56677;51.710;5.366;2023-07-13T15:02:40;6.05;;;2.10;;
69485;SDS011;56677;51.710;5.366;2023-07-13T15:05:12;7.93;;;2.63;;
69485;SDS011;56677;51.710;5.366;2023-07-13T15:07:37;8.43;;;1.97;;
69485;SDS011;56677;51.710;5.366;2023-07-13T15:10:04;7.20;;;1.80;;
69485;SDS011;56677;51.710;5.366;2023-07-13T15:12:29;7.95;;;2.28;;
69485;SDS011;56677;51.710;5.366;2023-07-13T15:14:55;5.78;;;1.90;;
69485;SDS011;56677;51.710;5.366;2023-07-13T15:17:36;3.60;;;1.85;;
69485;SDS011;56677;51.710;5.366;2023-07-13T15:20:03;4.75;;;1.85;;
69485;SDS011;56677;51.710;5.366;2023-07-13T15:22:29;5.93;;;2.40;;
69485;SDS011;56677;51.710;5.366;2023-07-13T15:24:54;7.40;;;2.10;;
69485;SDS011;56677;51.710;5.366;2023-07-13T15:27:19;4.90;;;2.33;;
69485;SDS011;56677;51.710;5.366;2023-07-13T15:29:44;5.13;;;2.10;;
69485;SDS011;56677;51.710;5.366;2023-07-13T15:32:11;5.13;;;1.92;;
69485;SDS011;56677;51.710;5.366;2023-07-13T15:34:38;5.68;;;1.90;;
69485;SDS011;56677;51.710;5.366;2023-07-13T15:37:03;5.93;;;2.00;;
69485;SDS011;56677;51.710;5.366;2023-07-13T15:39:29;6.53;;;2.28;;
69485;SDS011;56677;51.710;5.366;2023-07-13T15:41:54;6.03;;;1.80;;
69485;SDS011;56677;51.710;5.366;2023-07-13T15:44:26;7.23;;;2.77;;
69485;SDS011;56677;51.710;5.366;2023-07-13T15:46:52;5.95;;;2.17;;
69485;SDS011;56677;51.710;5.366;2023-07-13T15:49:17;5.47;;;2.23;;
69485;SDS011;56677;51.710;5.366;2023-07-13T15:51:42;7.65;;;2.10;;
69485;SDS011;56677;51.710;5.366;2023-07-13T15:54:08;6.43;;;1.77;;
69485;SDS011;56677;51.710;5.366;2023-07-13T15:56:36;4.70;;;2.00;;
69485;SDS011;56677;51.710;5.366;2023-07-13T15:59:02;5.32;;;1.95;;
69485;SDS011;56677;51.710;5.366;2023-07-13T16:01:27;5.03;;;2.10;;
69485;SDS011;56677;51.710;5.366;2023-07-13T16:03:53;7.77;;;1.90;;
69485;SDS011;56677;51.710;5.366;2023-07-13T16:06:19;4.40;;;1.90;;
69485;SDS011;56677;51.710;5.366;2023-07-13T16:08:45;5.63;;;1.75;;
69485;SDS011;56677;51.710;5.366;2023-07-13T16:11:24;5.13;;;2.25;;
69485;SDS011;56677;51.710;5.366;2023-07-13T16:13:50;4.07;;;1.70;;
69485;SDS011;56677;51.710;5.366;2023-07-13T16:16:15;9.87;;;1.90;;
69485;SDS011;56677;51.710;5.366;2023-07-13T16:18:40;4.70;;;2.28;;
69485;SDS011;56677;51.710;5.366;2023-07-13T16:21:12;3.50;;;1.93;;
69485;SDS011;56677;51.710;5.366;2023-07-13T16:23:37;4.72;;;1.98;;
69485;SDS011;56677;51.710;5.366;2023-07-13T16:26:03;3.83;;;1.97;;
69485;SDS011;56677;51.710;5.366;2023-07-13T16:28:29;5.43;;;1.80;;
69485;SDS011;56677;51.710;5.366;2023-07-13T16:30:54;4.68;;;1.98;;
69485;SDS011;56677;51.710;5.366;2023-07-13T16:33:19;4.53;;;1.63;;
69485;SDS011;56677;51.710;5.366;2023-07-13T16:35:44;5.00;;;1.90;;
69485;SDS011;56677;51.710;5.366;2023-07-13T16:38:13;5.57;;;1.77;;
69485;SDS011;56677;51.710;5.366;2023-07-13T16:40:39;6.00;;;2.17;;
69485;SDS011;56677;51.710;5.366;2023-07-13T16:43:05;3.30;;;1.60;;
69485;SDS011;56677;51.710;5.366;2023-07-13T16:45:31;3.80;;;1.70;;
69485;SDS011;56677;51.710;5.366;2023-07-13T16:47:56;6.90;;;1.77;;
69485;SDS011;56677;51.710;5.366;2023-07-13T16:50:23;5.53;;;1.90;;
69485;SDS011;56677;51.710;5.366;2023-07-13T16:52:49;3.40;;;1.95;;
69485;SDS011;56677;51.710;5.366;2023-07-13T16:55:15;3.97;;;1.60;;
69485;SDS011;56677;51.710;5.366;2023-07-13T16:57:41;5.22;;;1.90;;
69485;SDS011;56677;51.710;5.366;2023-07-13T17:00:18;6.95;;;2.00;;
69485;SDS011;56677;51.710;5.366;2023-07-13T17:02:43;5.43;;;1.80;;
69485;SDS011;56677;51.710;5.366;2023-07-13T17:05:11;4.37;;;1.60;;
69485;SDS011;56677;51.710;5.366;2023-07-13T17:07:36;4.68;;;1.85;;
69485;SDS011;56677;51.710;5.366;2023-07-13T17:10:01;6.57;;;1.43;;
69485;SDS011;56677;51.710;5.366;2023-07-13T17:12:27;3.13;;;1.33;;
69485;SDS011;56677;51.710;5.366;2023-07-13T17:14:52;4.20;;;1.53;;
69485;SDS011;56677;51.710;5.366;2023-07-13T17:17:18;5.17;;;1.80;;
69485;SDS011;56677;51.710;5.366;2023-07-13T17:19:44;4.45;;;1.42;;
69485;SDS011;56677;51.710;5.366;2023-07-13T17:22:10;3.80;;;1.70;;
69485;SDS011;56677;51.710;5.366;2023-07-13T17:24:36;7.73;;;1.70;;
69485;SDS011;56677;51.710;5.366;2023-07-13T17:27:01;5.57;;;1.73;;
69485;SDS011;56677;51.710;5.366;2023-07-13T17:29:26;3.25;;;1.58;;
69485;SDS011;56677;51.710;5.366;2023-07-13T17:31:51;3.67;;;1.80;;
69485;SDS011;56677;51.710;5.366;2023-07-13T17:34:16;3.00;;;1.58;;
69485;SDS011;56677;51.710;5.366;2023-07-13T17:36:42;3.57;;;1.63;;
69485;SDS011;56677;51.710;5.366;2023-07-13T17:39:14;4.60;;;1.48;;
69485;SDS011;56677;51.710;5.366;2023-07-13T17:41:39;5.30;;;1.65;;
69485;SDS011;56677;51.710;5.366;2023-07-13T17:44:04;4.10;;;1.70;;
69485;SDS011;56677;51.710;5.366;2023-07-13T17:46:30;2.83;;;1.50;;
69485;SDS011;56677;51.710;5.366;2023-07-13T17:48:56;4.45;;;1.85;;
69485;SDS011;56677;51.710;5.366;2023-07-13T17:51:22;5.27;;;1.80;;
69485;SDS011;56677;51.710;5.366;2023-07-13T17:53:47;4.70;;;1.90;;
69485;SDS011;56677;51.710;5.366;2023-07-13T17:56:12;3.42;;;1.58;;
69485;SDS011;56677;51.710;5.366;2023-07-13T17:58:38;5.32;;;1.92;;
69485;SDS011;56677;51.710;5.366;2023-07-13T18:01:04;3.28;;;1.75;;
69485;SDS011;56677;51.710;5.366;2023-07-13T18:03:30;5.40;;;1.47;;
69485;SDS011;56677;51.710;5.366;2023-07-13T18:05:55;2.72;;;1.27;;
69485;SDS011;56677;51.710;5.366;2023-07-13T18:08:22;4.18;;;1.88;;
69485;SDS011;56677;51.710;5.366;2023-07-13T18:10:48;3.92;;;1.65;;
69485;SDS011;56677;51.710;5.366;2023-07-13T18:13:13;4.97;;;1.90;;
69485;SDS011;56677;51.710;5.366;2023-07-13T18:15:38;3.77;;;1.60;;
69485;SDS011;56677;51.710;5.366;2023-07-13T18:18:03;6.00;;;1.90;;
69485;SDS011;56677;51.710;5.366;2023-07-13T18:20:29;4.10;;;1.73;;
69485;SDS011;56677;51.710;5.366;2023-07-13T18:22:54;3.42;;;1.80;;
69485;SDS011;56677;51.710;5.366;2023-07-13T18:25:20;4.97;;;2.25;;
69485;SDS011;56677;51.710;5.366;2023-07-13T18:27:45;5.45;;;2.13;;
69485;SDS011;56677;51.710;5.366;2023-07-13T18:30:11;6.17;;;2.27;;
69485;SDS011;56677;51.710;5.366;2023-07-13T18:32:40;6.20;;;2.20;;
69485;SDS011;56677;51.710;5.366;2023-07-13T18:35:15;4.28;;;1.90;;
69485;SDS011;56677;51.710;5.366;2023-07-13T18:37:41;5.30;;;2.30;;
69485;SDS011;56677;51.710;5.366;2023-07-13T18:40:14;5.97;;;2.42;;
69485;SDS011;56677;51.710;5.366;2023-07-13T18:42:39;6.18;;;2.10;;